• Join FlightAware (Why Join?)
  • Login
  • US Flag 
10:06AM EDT


 

Airport Tracker/Info


-or-


 

Live Flight TrackerFlight Track Log ✈ N125GH ✈ 29-Jun-2013 ✈ KHOT - KHOU

Flight Track Log - Related Links

Times and Time Zones

All times are in EDT time to prevent confusion due to time zone crossing. See the N125GH flight status page for this flight to view local times or setup timezone preferences in your user account.

Time Position Orientation Groundspeed Altitude Reporting Facility
EDT Latitude Longitude Course Direction KTS MPH feet Rate Location/Type
09:33PM 34.3628 -93.1450 195° South 414 476 7,100  Level Memphis Center
09:34PM 34.2914 -93.1678 195° South 359 413 10,400 2,700 Climbing Memphis Center
09:35PM 34.1906 -93.1947 192° South 359 413 12,500 2,820 Climbing Memphis Center
09:37PM 33.9478 -93.2447 190° South 413 475 19,100 2,940 Climbing Fort Worth Center
09:38PM 33.8336 -93.2703 191° South 413 475 21,600 1,920 Climbing Fort Worth Center
09:39PM 33.7094 -93.2986 191° South 435 501 23,000 1,500 Climbing Fort Worth Center
09:40PM 33.5853 -93.3269 191° South 454 522 24,600 1,800 Climbing Fort Worth Center
09:41PM 33.4567 -93.3553 190° South 460 529 26,700 2,040 Climbing Fort Worth Center
09:42PM 33.3242 -93.3836 190° South 473 544 28,700 1,860 Climbing Fort Worth Center
09:43PM 33.1942 -93.4317 197° South 483 556 30,500 1,380 Climbing Fort Worth Center
09:44PM 33.0786 -93.4792 199° South 489 563 31,500 1,260 Climbing Fort Worth Center
09:45PM 32.9447 -93.5344 199° South 501 577 33,000 1,440 Climbing Fort Worth Center
09:46PM 32.8150 -93.5872 199° South 501 577 34,400 1,380 Climbing Fort Worth Center
09:47PM 32.6869 -93.6394 199° South 501 577 35,800 1,380 Climbing Fort Worth Center
09:48PM 32.5633 -93.6889 199° South 491 565 37,200 1,080 Climbing Fort Worth Center
09:49PM 32.4417 -93.7408 200° South 479 551 38,000 360 Climbing Fort Worth Center
09:50PM 32.3197 -93.7875 198° South 474 545 38,000  Level Fort Worth Center
09:51PM 32.1981 -93.8364 199° South 469 540 38,000  Level Fort Worth Center
09:52PM 32.0683 -93.8956 201° Southwest 464 534 38,000  Level Fort Worth Center
09:53PM 31.9464 -93.9442 199° South 459 528 38,000  Level Fort Worth Center
09:54PM 31.8225 -93.9953 199° South 466 536 38,000  Level Fort Worth Center
09:55PM 31.7214 -94.0322 197° South 466 536 38,000  Level Houston Center
09:56PM 31.5989 -94.0803 198° South 462 532 38,000  Level Houston Center
09:57PM 31.4753 -94.1303 199° South 465 535 38,000 -360 Level Houston Center
09:58PM 31.3508 -94.1783 198° South 467 537 37,300 -1,680 Descending Houston Center
09:59PM 31.2269 -94.2269 199° South 466 536 34,600 -2,700 Descending Houston Center
10:00PM 31.0972 -94.2781 199° South 480 552 31,900 -2,760 Descending Houston Center
10:01PM 30.9653 -94.3303 199° South 492 566 29,100 -2,760 Descending Houston Center
10:02PM 30.8378 -94.3797 198° South 482 555 26,400 -2,880 Descending Houston Center
10:03PM 30.7175 -94.4297 200° South 464 534 23,700 -2,880 Descending Houston Center
10:03PM 30.6506 -94.4556 198° South 455 524 22,400 -2,640 Descending Houston Center
10:04PM 30.5758 -94.4847 199° South 450 518 20,700 -2,460 Descending Houston Center
10:05PM 30.4742 -94.5631 214° Southwest 422 486 18,400 -1,920 Descending Houston Center
10:06PM 30.3964 -94.6431 222° Southwest 416 479 16,800 -1,680 Descending Houston Center
10:07PM 30.3167 -94.7297 223° Southwest 398 458 15,000 -1,740 Descending Houston Center
10:08PM 30.2381 -94.8139 223° Southwest 387 445 13,300 -1,740 Descending Houston Center
10:09PM 30.1617 -94.8956 223° Southwest 377 434 11,600 -1,680 Descending Houston Center
10:10PM 30.0872 -94.9750 223° Southwest 366 421 10,000 -1,500 Descending Houston Center
10:11PM 30.0208 -95.0447 222° Southwest 326 375 8,600 -1,380 Descending Houston Center
10:12PM 29.9614 -95.1075 222° Southwest 295 339 7,200 -1,320 Descending Houston Center
10:13PM 29.8950 -95.1778 223° Southwest 273 314 6,000 -960 Descending Houston Center
10:14PM 29.8461 -95.2300 223° Southwest 245 282 5,300 -1,200 Descending Houston Center
10:15PM 29.7936 -95.2856 223° Southwest 255 293 3,600 -1,200 Descending Houston Center
10:16PM 29.7442 -95.3361 222° Southwest 239 275 3,000 -780 Descending Houston Center
10:17PM 29.6928 -95.3400 184° South 204 235 2,100 -540 Descending Houston Center
10:18PM 29.6561 -95.3536 198° South 178 205 2,000 -60 Descending Houston Center
10:19PM 29.6378 -95.4011 246° West 167 192 2,000  Level Houston Center
10:20PM 29.6467 -95.4481 282° West 167 192 2,000  Level Houston Center
10:21PM 29.6742 -95.4383 17° North 150 173 2,000  Level Houston Center
10:22PM 29.6989 -95.4089 46° Northeast 156 180 2,000  Level Houston Center
10:22PM 29.7050 -95.3894 70° East 160 184 2,000 -360 Level Houston Center
10:23PM 29.7083 -95.3525 84° East 154 177 1,600 -600 Descending Houston Center
10:24PM 29.6828 -95.3242 136° Southeast 125 144 1,100 -660 Descending Houston Center
10:25PM 29.6589 -95.2936 132° Southeast 139 160 300 -840 Descending Houston Center